sensor_id;sensor_type;location;lat;lon;timestamp;P1;durP1;ratioP1;P2;durP2;ratioP2
11616;SDS011;5864;52.998;9.068;2022-11-15T00:00:10;22.87;;;15.30;;
11616;SDS011;5864;52.998;9.068;2022-11-15T00:02:38;23.13;;;15.30;;
11616;SDS011;5864;52.998;9.068;2022-11-15T00:05:05;22.37;;;15.03;;
11616;SDS011;5864;52.998;9.068;2022-11-15T00:07:34;21.73;;;14.97;;
11616;SDS011;5864;52.998;9.068;2022-11-15T00:10:02;23.63;;;15.07;;
11616;SDS011;5864;52.998;9.068;2022-11-15T00:12:30;25.13;;;15.43;;
11616;SDS011;5864;52.998;9.068;2022-11-15T00:14:57;24.10;;;15.67;;
11616;SDS011;5864;52.998;9.068;2022-11-15T00:17:25;22.47;;;16.03;;
11616;SDS011;5864;52.998;9.068;2022-11-15T00:19:52;20.67;;;14.23;;
11616;SDS011;5864;52.998;9.068;2022-11-15T00:22:20;21.60;;;14.63;;
11616;SDS011;5864;52.998;9.068;2022-11-15T00:24:49;21.63;;;14.77;;
11616;SDS011;5864;52.998;9.068;2022-11-15T00:27:16;21.50;;;14.60;;
11616;SDS011;5864;52.998;9.068;2022-11-15T00:29:44;20.90;;;13.93;;
11616;SDS011;5864;52.998;9.068;2022-11-15T00:32:11;22.57;;;14.83;;
11616;SDS011;5864;52.998;9.068;2022-11-15T00:34:39;22.20;;;14.57;;
11616;SDS011;5864;52.998;9.068;2022-11-15T00:37:06;22.27;;;15.27;;
11616;SDS011;5864;52.998;9.068;2022-11-15T00:39:34;22.90;;;15.07;;
11616;SDS011;5864;52.998;9.068;2022-11-15T00:42:03;23.50;;;15.10;;
11616;SDS011;5864;52.998;9.068;2022-11-15T00:44:30;22.67;;;15.80;;
11616;SDS011;5864;52.998;9.068;2022-11-15T00:46:57;21.80;;;14.27;;
11616;SDS011;5864;52.998;9.068;2022-11-15T00:49:25;22.73;;;14.30;;
11616;SDS011;5864;52.998;9.068;2022-11-15T00:51:52;21.40;;;14.20;;
11616;SDS011;5864;52.998;9.068;2022-11-15T00:54:20;20.23;;;13.83;;
11616;SDS011;5864;52.998;9.068;2022-11-15T00:56:47;20.47;;;13.83;;
11616;SDS011;5864;52.998;9.068;2022-11-15T00:59:16;19.03;;;13.97;;
11616;SDS011;5864;52.998;9.068;2022-11-15T01:01:44;22.73;;;14.33;;
11616;SDS011;5864;52.998;9.068;2022-11-15T01:04:11;19.37;;;13.37;;
11616;SDS011;5864;52.998;9.068;2022-11-15T01:06:39;21.90;;;13.43;;
11616;SDS011;5864;52.998;9.068;2022-11-15T01:09:06;19.73;;;13.53;;
11616;SDS011;5864;52.998;9.068;2022-11-15T01:11:34;21.60;;;14.50;;
11616;SDS011;5864;52.998;9.068;2022-11-15T01:14:01;20.07;;;14.37;;
11616;SDS011;5864;52.998;9.068;2022-11-15T01:16:30;22.30;;;14.80;;
11616;SDS011;5864;52.998;9.068;2022-11-15T01:18:58;18.80;;;14.07;;
11616;SDS011;5864;52.998;9.068;2022-11-15T01:21:26;19.17;;;13.13;;
11616;SDS011;5864;52.998;9.068;2022-11-15T01:23:54;18.67;;;14.10;;
11616;SDS011;5864;52.998;9.068;2022-11-15T01:26:22;21.23;;;13.80;;
11616;SDS011;5864;52.998;9.068;2022-11-15T01:28:51;21.00;;;14.53;;
11616;SDS011;5864;52.998;9.068;2022-11-15T01:31:19;18.43;;;13.03;;
11616;SDS011;5864;52.998;9.068;2022-11-15T01:33:48;20.23;;;13.77;;
11616;SDS011;5864;52.998;9.068;2022-11-15T01:36:17;21.73;;;14.00;;
11616;SDS011;5864;52.998;9.068;2022-11-15T01:38:47;22.23;;;14.10;;
11616;SDS011;5864;52.998;9.068;2022-11-15T01:41:21;18.50;;;12.87;;
11616;SDS011;5864;52.998;9.068;2022-11-15T01:43:51;22.47;;;13.57;;
11616;SDS011;5864;52.998;9.068;2022-11-15T01:46:24;18.37;;;12.97;;
11616;SDS011;5864;52.998;9.068;2022-11-15T01:48:57;19.03;;;13.30;;
11616;SDS011;5864;52.998;9.068;2022-11-15T01:51:27;18.90;;;13.13;;
11616;SDS011;5864;52.998;9.068;2022-11-15T01:54:00;16.40;;;12.37;;
11616;SDS011;5864;52.998;9.068;2022-11-15T01:56:35;20.70;;;13.63;;
11616;SDS011;5864;52.998;9.068;2022-11-15T01:59:07;19.87;;;13.70;;
11616;SDS011;5864;52.998;9.068;2022-11-15T02:01:35;20.13;;;13.50;;
11616;SDS011;5864;52.998;9.068;2022-11-15T02:04:05;20.17;;;12.73;;
11616;SDS011;5864;52.998;9.068;2022-11-15T02:06:36;18.50;;;12.93;;
11616;SDS011;5864;52.998;9.068;2022-11-15T02:09:05;21.27;;;13.93;;
11616;SDS011;5864;52.998;9.068;2022-11-15T02:11:33;19.60;;;13.70;;
11616;SDS011;5864;52.998;9.068;2022-11-15T02:14:00;19.63;;;13.57;;
11616;SDS011;5864;52.998;9.068;2022-11-15T02:16:31;21.90;;;14.53;;
11616;SDS011;5864;52.998;9.068;2022-11-15T02:19:02;18.83;;;13.43;;
11616;SDS011;5864;52.998;9.068;2022-11-15T02:21:46;17.67;;;12.40;;
11616;SDS011;5864;52.998;9.068;2022-11-15T02:24:42;19.50;;;13.47;;
11616;SDS011;5864;52.998;9.068;2022-11-15T02:30:37;19.90;;;13.87;;
11616;SDS011;5864;52.998;9.068;2022-11-15T02:33:12;20.10;;;13.13;;
11616;SDS011;5864;52.998;9.068;2022-11-15T02:35:48;22.47;;;13.87;;
11616;SDS011;5864;52.998;9.068;2022-11-15T02:38:26;19.73;;;13.33;;
11616;SDS011;5864;52.998;9.068;2022-11-15T02:41:01;20.33;;;13.20;;
11616;SDS011;5864;52.998;9.068;2022-11-15T02:43:35;20.93;;;13.93;;
11616;SDS011;5864;52.998;9.068;2022-11-15T02:46:25;18.27;;;13.00;;
11616;SDS011;5864;52.998;9.068;2022-11-15T02:49:10;20.07;;;12.13;;
11616;SDS011;5864;52.998;9.068;2022-11-15T02:51:39;19.67;;;12.73;;
11616;SDS011;5864;52.998;9.068;2022-11-15T02:54:10;20.67;;;12.63;;
11616;SDS011;5864;52.998;9.068;2022-11-15T02:56:40;19.30;;;13.73;;
11616;SDS011;5864;52.998;9.068;2022-11-15T02:59:13;20.73;;;12.80;;
11616;SDS011;5864;52.998;9.068;2022-11-15T03:01:59;20.67;;;12.77;;
11616;SDS011;5864;52.998;9.068;2022-11-15T03:04:35;18.50;;;11.73;;
11616;SDS011;5864;52.998;9.068;2022-11-15T03:07:11;17.10;;;11.97;;
11616;SDS011;5864;52.998;9.068;2022-11-15T03:09:43;17.73;;;12.37;;
11616;SDS011;5864;52.998;9.068;2022-11-15T03:12:25;18.60;;;13.43;;
11616;SDS011;5864;52.998;9.068;2022-11-15T03:14:56;16.70;;;11.10;;
11616;SDS011;5864;52.998;9.068;2022-11-15T03:17:28;18.57;;;12.83;;
11616;SDS011;5864;52.998;9.068;2022-11-15T03:20:01;18.97;;;12.63;;
11616;SDS011;5864;52.998;9.068;2022-11-15T03:22:33;15.47;;;11.70;;
11616;SDS011;5864;52.998;9.068;2022-11-15T03:25:08;18.27;;;12.20;;
11616;SDS011;5864;52.998;9.068;2022-11-15T03:27:50;18.40;;;11.77;;
11616;SDS011;5864;52.998;9.068;2022-11-15T03:30:20;17.87;;;12.17;;
11616;SDS011;5864;52.998;9.068;2022-11-15T03:32:50;17.13;;;12.37;;
11616;SDS011;5864;52.998;9.068;2022-11-15T03:35:19;17.80;;;12.13;;
11616;SDS011;5864;52.998;9.068;2022-11-15T03:37:49;15.33;;;11.17;;
11616;SDS011;5864;52.998;9.068;2022-11-15T03:40:21;17.90;;;11.87;;
11616;SDS011;5864;52.998;9.068;2022-11-15T03:42:57;19.70;;;12.50;;
11616;SDS011;5864;52.998;9.068;2022-11-15T03:45:28;20.27;;;11.63;;
11616;SDS011;5864;52.998;9.068;2022-11-15T03:48:01;17.03;;;11.53;;
11616;SDS011;5864;52.998;9.068;2022-11-15T03:50:33;17.37;;;11.97;;
11616;SDS011;5864;52.998;9.068;2022-11-15T03:53:01;19.03;;;12.57;;
11616;SDS011;5864;52.998;9.068;2022-11-15T03:55:31;19.63;;;12.40;;
11616;SDS011;5864;52.998;9.068;2022-11-15T03:58:00;17.13;;;11.40;;
11616;SDS011;5864;52.998;9.068;2022-11-15T04:00:28;18.90;;;12.40;;
11616;SDS011;5864;52.998;9.068;2022-11-15T04:02:55;17.30;;;11.60;;
11616;SDS011;5864;52.998;9.068;2022-11-15T04:05:24;16.20;;;11.83;;
11616;SDS011;5864;52.998;9.068;2022-11-15T04:07:52;14.73;;;11.13;;
11616;SDS011;5864;52.998;9.068;2022-11-15T04:10:19;16.87;;;12.43;;
11616;SDS011;5864;52.998;9.068;2022-11-15T04:12:47;15.60;;;11.37;;
11616;SDS011;5864;52.998;9.068;2022-11-15T04:15:15;15.93;;;11.97;;
11616;SDS011;5864;52.998;9.068;2022-11-15T04:17:44;18.73;;;11.67;;
11616;SDS011;5864;52.998;9.068;2022-11-15T04:20:13;17.73;;;10.63;;
11616;SDS011;5864;52.998;9.068;2022-11-15T04:23:01;17.33;;;10.87;;
11616;SDS011;5864;52.998;9.068;2022-11-15T04:25:48;15.07;;;10.50;;
11616;SDS011;5864;52.998;9.068;2022-11-15T04:28:18;16.97;;;11.03;;
11616;SDS011;5864;52.998;9.068;2022-11-15T04:30:46;16.20;;;11.27;;
11616;SDS011;5864;52.998;9.068;2022-11-15T04:33:13;14.03;;;10.33;;
11616;SDS011;5864;52.998;9.068;2022-11-15T04:35:41;13.77;;;10.67;;
11616;SDS011;5864;52.998;9.068;2022-11-15T04:38:31;12.87;;;9.93;;
11616;SDS011;5864;52.998;9.068;2022-11-15T04:40:57;15.53;;;11.10;;
11616;SDS011;5864;52.998;9.068;2022-11-15T04:43:25;15.87;;;10.07;;
11616;SDS011;5864;52.998;9.068;2022-11-15T04:45:52;14.10;;;10.43;;
11616;SDS011;5864;52.998;9.068;2022-11-15T04:48:20;14.93;;;10.57;;
11616;SDS011;5864;52.998;9.068;2022-11-15T04:50:47;16.00;;;10.83;;
11616;SDS011;5864;52.998;9.068;2022-11-15T04:53:15;16.17;;;10.77;;
11616;SDS011;5864;52.998;9.068;2022-11-15T04:55:45;14.13;;;9.70;;
11616;SDS011;5864;52.998;9.068;2022-11-15T04:58:13;14.10;;;11.17;;
11616;SDS011;5864;52.998;9.068;2022-11-15T05:00:40;15.90;;;9.50;;
11616;SDS011;5864;52.998;9.068;2022-11-15T05:03:08;13.47;;;9.67;;
11616;SDS011;5864;52.998;9.068;2022-11-15T05:05:59;16.57;;;10.03;;
11616;SDS011;5864;52.998;9.068;2022-11-15T05:08:26;13.93;;;10.03;;
11616;SDS011;5864;52.998;9.068;2022-11-15T05:10:55;15.47;;;10.23;;
11616;SDS011;5864;52.998;9.068;2022-11-15T05:13:23;15.50;;;10.47;;
11616;SDS011;5864;52.998;9.068;2022-11-15T05:15:50;14.93;;;10.07;;
11616;SDS011;5864;52.998;9.068;2022-11-15T05:18:18;13.20;;;10.60;;
11616;SDS011;5864;52.998;9.068;2022-11-15T05:20:45;13.33;;;9.63;;
11616;SDS011;5864;52.998;9.068;2022-11-15T05:23:13;15.77;;;9.57;;
11616;SDS011;5864;52.998;9.068;2022-11-15T05:25:40;14.93;;;9.97;;
11616;SDS011;5864;52.998;9.068;2022-11-15T05:28:09;14.63;;;10.23;;
11616;SDS011;5864;52.998;9.068;2022-11-15T05:30:36;13.03;;;9.77;;
11616;SDS011;5864;52.998;9.068;2022-11-15T05:33:04;12.63;;;9.37;;
11616;SDS011;5864;52.998;9.068;2022-11-15T05:35:33;12.97;;;9.77;;
11616;SDS011;5864;52.998;9.068;2022-11-15T05:38:04;14.70;;;10.23;;
11616;SDS011;5864;52.998;9.068;2022-11-15T05:40:32;14.73;;;10.60;;
11616;SDS011;5864;52.998;9.068;2022-11-15T05:43:01;16.47;;;10.80;;
11616;SDS011;5864;52.998;9.068;2022-11-15T05:45:32;11.97;;;9.67;;
11616;SDS011;5864;52.998;9.068;2022-11-15T05:48:01;13.37;;;10.03;;
11616;SDS011;5864;52.998;9.068;2022-11-15T05:50:32;12.67;;;9.93;;
11616;SDS011;5864;52.998;9.068;2022-11-15T05:53:00;14.17;;;10.30;;
11616;SDS011;5864;52.998;9.068;2022-11-15T05:55:29;11.30;;;9.10;;
11616;SDS011;5864;52.998;9.068;2022-11-15T05:57:56;12.97;;;10.00;;
11616;SDS011;5864;52.998;9.068;2022-11-15T06:00:24;13.50;;;9.40;;
11616;SDS011;5864;52.998;9.068;2022-11-15T06:02:53;15.63;;;9.70;;
11616;SDS011;5864;52.998;9.068;2022-11-15T06:05:20;14.73;;;10.37;;
11616;SDS011;5864;52.998;9.068;2022-11-15T06:07:48;12.50;;;9.70;;
11616;SDS011;5864;52.998;9.068;2022-11-15T06:10:15;13.63;;;9.70;;
11616;SDS011;5864;52.998;9.068;2022-11-15T06:12:43;13.20;;;10.40;;
11616;SDS011;5864;52.998;9.068;2022-11-15T06:15:10;13.27;;;9.20;;
11616;SDS011;5864;52.998;9.068;2022-11-15T06:17:38;12.50;;;9.93;;
11616;SDS011;5864;52.998;9.068;2022-11-15T06:20:08;12.53;;;10.37;;
11616;SDS011;5864;52.998;9.068;2022-11-15T06:22:36;15.80;;;9.80;;
11616;SDS011;5864;52.998;9.068;2022-11-15T06:25:04;12.50;;;9.20;;
11616;SDS011;5864;52.998;9.068;2022-11-15T06:27:31;10.83;;;9.10;;
11616;SDS011;5864;52.998;9.068;2022-11-15T06:29:59;18.07;;;10.07;;
11616;SDS011;5864;52.998;9.068;2022-11-15T06:32:26;13.80;;;10.37;;
11616;SDS011;5864;52.998;9.068;2022-11-15T06:34:55;16.47;;;10.73;;
11616;SDS011;5864;52.998;9.068;2022-11-15T06:37:24;14.40;;;10.27;;
11616;SDS011;5864;52.998;9.068;2022-11-15T06:39:52;14.80;;;10.37;;
11616;SDS011;5864;52.998;9.068;2022-11-15T06:42:19;14.10;;;9.87;;
11616;SDS011;5864;52.998;9.068;2022-11-15T06:44:47;15.67;;;10.53;;
11616;SDS011;5864;52.998;9.068;2022-11-15T06:47:14;14.07;;;9.67;;
11616;SDS011;5864;52.998;9.068;2022-11-15T06:49:42;14.60;;;9.83;;
11616;SDS011;5864;52.998;9.068;2022-11-15T06:52:10;15.00;;;9.97;;
11616;SDS011;5864;52.998;9.068;2022-11-15T06:54:39;16.10;;;9.80;;
11616;SDS011;5864;52.998;9.068;2022-11-15T06:57:06;13.70;;;9.90;;
11616;SDS011;5864;52.998;9.068;2022-11-15T06:59:34;13.27;;;9.50;;
11616;SDS011;5864;52.998;9.068;2022-11-15T07:02:02;14.20;;;9.70;;
11616;SDS011;5864;52.998;9.068;2022-11-15T07:04:30;14.13;;;9.47;;
11616;SDS011;5864;52.998;9.068;2022-11-15T07:06:57;17.00;;;11.07;;
11616;SDS011;5864;52.998;9.068;2022-11-15T07:09:25;15.43;;;10.20;;
11616;SDS011;5864;52.998;9.068;2022-11-15T07:11:54;15.80;;;9.67;;
11616;SDS011;5864;52.998;9.068;2022-11-15T07:14:21;13.03;;;10.10;;
11616;SDS011;5864;52.998;9.068;2022-11-15T07:16:50;11.30;;;10.10;;
11616;SDS011;5864;52.998;9.068;2022-11-15T07:19:18;15.57;;;10.43;;
11616;SDS011;5864;52.998;9.068;2022-11-15T07:21:47;15.93;;;10.57;;
11616;SDS011;5864;52.998;9.068;2022-11-15T07:24:15;12.93;;;9.97;;
11616;SDS011;5864;52.998;9.068;2022-11-15T07:26:43;14.63;;;10.03;;
11616;SDS011;5864;52.998;9.068;2022-11-15T07:29:12;13.80;;;10.27;;
11616;SDS011;5864;52.998;9.068;2022-11-15T07:31:39;15.77;;;10.63;;
11616;SDS011;5864;52.998;9.068;2022-11-15T07:34:07;14.00;;;9.90;;
11616;SDS011;5864;52.998;9.068;2022-11-15T07:36:35;13.23;;;9.80;;
11616;SDS011;5864;52.998;9.068;2022-11-15T07:39:03;13.07;;;9.73;;
11616;SDS011;5864;52.998;9.068;2022-11-15T07:41:30;12.83;;;9.60;;
11616;SDS011;5864;52.998;9.068;2022-11-15T07:43:58;10.93;;;8.77;;
11616;SDS011;5864;52.998;9.068;2022-11-15T07:46:28;12.33;;;9.83;;
11616;SDS011;5864;52.998;9.068;2022-11-15T07:48:55;13.13;;;9.00;;
11616;SDS011;5864;52.998;9.068;2022-11-15T07:51:23;11.20;;;9.13;;
11616;SDS011;5864;52.998;9.068;2022-11-15T07:53:51;11.07;;;8.70;;
11616;SDS011;5864;52.998;9.068;2022-11-15T07:56:18;13.13;;;9.20;;
11616;SDS011;5864;52.998;9.068;2022-11-15T07:58:46;15.57;;;9.57;;
11616;SDS011;5864;52.998;9.068;2022-11-15T08:01:15;12.63;;;9.03;;
11616;SDS011;5864;52.998;9.068;2022-11-15T08:03:44;12.67;;;9.53;;
11616;SDS011;5864;52.998;9.068;2022-11-15T08:06:12;12.20;;;8.50;;
11616;SDS011;5864;52.998;9.068;2022-11-15T08:08:39;13.20;;;8.83;;
11616;SDS011;5864;52.998;9.068;2022-11-15T08:11:07;10.43;;;8.53;;
11616;SDS011;5864;52.998;9.068;2022-11-15T08:13:35;13.63;;;8.63;;
11616;SDS011;5864;52.998;9.068;2022-11-15T08:16:03;12.47;;;8.20;;
11616;SDS011;5864;52.998;9.068;2022-11-15T08:18:31;10.97;;;8.50;;
11616;SDS011;5864;52.998;9.068;2022-11-15T08:21:00;11.50;;;8.27;;
11616;SDS011;5864;52.998;9.068;2022-11-15T08:23:28;11.00;;;8.17;;
11616;SDS011;5864;52.998;9.068;2022-11-15T08:26:00;10.80;;;8.10;;
11616;SDS011;5864;52.998;9.068;2022-11-15T08:28:28;11.30;;;7.60;;
11616;SDS011;5864;52.998;9.068;2022-11-15T08:30:56;14.07;;;8.27;;
11616;SDS011;5864;52.998;9.068;2022-11-15T08:33:23;12.13;;;8.03;;
11616;SDS011;5864;52.998;9.068;2022-11-15T08:35:51;10.23;;;7.70;;
11616;SDS011;5864;52.998;9.068;2022-11-15T08:38:20;8.83;;;7.33;;
11616;SDS011;5864;52.998;9.068;2022-11-15T08:40:48;11.87;;;8.57;;
11616;SDS011;5864;52.998;9.068;2022-11-15T08:43:16;9.30;;;7.93;;
11616;SDS011;5864;52.998;9.068;2022-11-15T08:45:43;12.90;;;8.00;;
11616;SDS011;5864;52.998;9.068;2022-11-15T08:48:11;11.07;;;8.43;;
11616;SDS011;5864;52.998;9.068;2022-11-15T08:50:39;9.37;;;7.83;;
11616;SDS011;5864;52.998;9.068;2022-11-15T08:53:06;11.60;;;7.70;;
11616;SDS011;5864;52.998;9.068;2022-11-15T08:55:36;11.57;;;8.13;;
11616;SDS011;5864;52.998;9.068;2022-11-15T08:58:04;11.17;;;7.67;;
11616;SDS011;5864;52.998;9.068;2022-11-15T09:00:32;10.40;;;7.60;;
11616;SDS011;5864;52.998;9.068;2022-11-15T09:03:03;10.33;;;7.53;;
11616;SDS011;5864;52.998;9.068;2022-11-15T09:05:31;9.67;;;7.53;;
11616;SDS011;5864;52.998;9.068;2022-11-15T09:07:58;13.17;;;8.13;;
11616;SDS011;5864;52.998;9.068;2022-11-15T09:10:26;12.60;;;7.57;;
11616;SDS011;5864;52.998;9.068;2022-11-15T09:12:56;10.43;;;7.43;;
11616;SDS011;5864;52.998;9.068;2022-11-15T09:15:23;10.60;;;7.80;;
11616;SDS011;5864;52.998;9.068;2022-11-15T09:17:51;10.57;;;7.33;;
11616;SDS011;5864;52.998;9.068;2022-11-15T09:20:19;11.57;;;7.47;;
11616;SDS011;5864;52.998;9.068;2022-11-15T09:22:46;9.30;;;6.90;;
11616;SDS011;5864;52.998;9.068;2022-11-15T09:25:14;9.70;;;7.57;;
11616;SDS011;5864;52.998;9.068;2022-11-15T09:27:42;9.47;;;7.00;;
11616;SDS011;5864;52.998;9.068;2022-11-15T09:30:11;8.47;;;6.57;;
11616;SDS011;5864;52.998;9.068;2022-11-15T09:32:39;9.77;;;6.63;;
11616;SDS011;5864;52.998;9.068;2022-11-15T09:35:06;9.97;;;7.63;;
11616;SDS011;5864;52.998;9.068;2022-11-15T09:37:34;9.73;;;7.03;;
11616;SDS011;5864;52.998;9.068;2022-11-15T09:40:02;9.73;;;6.87;;
11616;SDS011;5864;52.998;9.068;2022-11-15T09:42:34;9.10;;;6.90;;
11616;SDS011;5864;52.998;9.068;2022-11-15T09:45:12;9.13;;;6.43;;
11616;SDS011;5864;52.998;9.068;2022-11-15T09:48:08;9.00;;;6.87;;
11616;SDS011;5864;52.998;9.068;2022-11-15T09:50:39;11.27;;;6.97;;
11616;SDS011;5864;52.998;9.068;2022-11-15T09:53:10;9.60;;;7.17;;
11616;SDS011;5864;52.998;9.068;2022-11-15T09:55:40;8.33;;;6.33;;
11616;SDS011;5864;52.998;9.068;2022-11-15T09:58:15;10.83;;;6.97;;
11616;SDS011;5864;52.998;9.068;2022-11-15T10:00:46;7.13;;;6.33;;
11616;SDS011;5864;52.998;9.068;2022-11-15T10:03:18;8.43;;;6.17;;
11616;SDS011;5864;52.998;9.068;2022-11-15T10:05:48;8.67;;;6.63;;
11616;SDS011;5864;52.998;9.068;2022-11-15T10:08:28;7.57;;;6.33;;
11616;SDS011;5864;52.998;9.068;2022-11-15T10:10:58;10.23;;;6.13;;
11616;SDS011;5864;52.998;9.068;2022-11-15T10:13:28;9.20;;;6.00;;
11616;SDS011;5864;52.998;9.068;2022-11-15T10:16:00;9.37;;;6.73;;
11616;SDS011;5864;52.998;9.068;2022-11-15T10:18:30;7.93;;;5.53;;
11616;SDS011;5864;52.998;9.068;2022-11-15T10:21:06;7.20;;;6.10;;
11616;SDS011;5864;52.998;9.068;2022-11-15T10:23:38;7.60;;;5.97;;
11616;SDS011;5864;52.998;9.068;2022-11-15T10:26:07;7.70;;;6.27;;
11616;SDS011;5864;52.998;9.068;2022-11-15T10:28:36;9.50;;;6.00;;
11616;SDS011;5864;52.998;9.068;2022-11-15T10:31:19;12.57;;;7.30;;
11616;SDS011;5864;52.998;9.068;2022-11-15T10:33:47;8.23;;;6.10;;
11616;SDS011;5864;52.998;9.068;2022-11-15T10:36:16;10.90;;;6.87;;
11616;SDS011;5864;52.998;9.068;2022-11-15T10:38:52;9.73;;;6.47;;
11616;SDS011;5864;52.998;9.068;2022-11-15T10:41:20;8.47;;;6.20;;
11616;SDS011;5864;52.998;9.068;2022-11-15T10:44:01;11.63;;;6.10;;
11616;SDS011;5864;52.998;9.068;2022-11-15T10:46:30;8.57;;;6.43;;
11616;SDS011;5864;52.998;9.068;2022-11-15T10:49:06;9.03;;;6.73;;
11616;SDS011;5864;52.998;9.068;2022-11-15T10:51:40;9.57;;;6.67;;
11616;SDS011;5864;52.998;9.068;2022-11-15T10:54:10;8.23;;;6.07;;
11616;SDS011;5864;52.998;9.068;2022-11-15T10:56:39;8.23;;;5.70;;
11616;SDS011;5864;52.998;9.068;2022-11-15T10:59:13;6.50;;;5.80;;
11616;SDS011;5864;52.998;9.068;2022-11-15T11:01:47;9.27;;;6.10;;
11616;SDS011;5864;52.998;9.068;2022-11-15T11:04:15;8.50;;;5.93;;
11616;SDS011;5864;52.998;9.068;2022-11-15T11:06:47;7.47;;;6.07;;
11616;SDS011;5864;52.998;9.068;2022-11-15T11:09:30;6.47;;;5.77;;
11616;SDS011;5864;52.998;9.068;2022-11-15T11:11:58;9.60;;;5.80;;
11616;SDS011;5864;52.998;9.068;2022-11-15T11:14:26;7.53;;;5.97;;
11616;SDS011;5864;52.998;9.068;2022-11-15T11:17:00;6.93;;;5.63;;
11616;SDS011;5864;52.998;9.068;2022-11-15T11:19:49;6.87;;;5.63;;
11616;SDS011;5864;52.998;9.068;2022-11-15T11:22:20;7.37;;;5.83;;
11616;SDS011;5864;52.998;9.068;2022-11-15T11:24:53;6.80;;;5.00;;
11616;SDS011;5864;52.998;9.068;2022-11-15T11:27:27;7.20;;;5.10;;
11616;SDS011;5864;52.998;9.068;2022-11-15T11:30:02;5.47;;;4.70;;
11616;SDS011;5864;52.998;9.068;2022-11-15T11:35:31;8.67;;;5.37;;
11616;SDS011;5864;52.998;9.068;2022-11-15T11:38:06;5.67;;;5.00;;
11616;SDS011;5864;52.998;9.068;2022-11-15T11:40:43;5.57;;;4.87;;
11616;SDS011;5864;52.998;9.068;2022-11-15T11:43:12;6.07;;;4.77;;
11616;SDS011;5864;52.998;9.068;2022-11-15T11:46:02;5.63;;;4.93;;
11616;SDS011;5864;52.998;9.068;2022-11-15T11:48:40;7.57;;;5.57;;
11616;SDS011;5864;52.998;9.068;2022-11-15T11:51:13;8.00;;;5.13;;
11616;SDS011;5864;52.998;9.068;2022-11-15T11:53:47;5.53;;;4.97;;
11616;SDS011;5864;52.998;9.068;2022-11-15T11:56:22;6.53;;;5.13;;
11616;SDS011;5864;52.998;9.068;2022-11-15T11:58:53;6.50;;;4.83;;
11616;SDS011;5864;52.998;9.068;2022-11-15T12:01:24;6.40;;;5.20;;
11616;SDS011;5864;52.998;9.068;2022-11-15T12:03:57;6.07;;;5.00;;
11616;SDS011;5864;52.998;9.068;2022-11-15T12:06:32;9.40;;;5.77;;
11616;SDS011;5864;52.998;9.068;2022-11-15T12:09:07;5.77;;;4.70;;
11616;SDS011;5864;52.998;9.068;2022-11-15T12:11:43;6.03;;;4.77;;
11616;SDS011;5864;52.998;9.068;2022-11-15T12:14:21;6.33;;;4.77;;
11616;SDS011;5864;52.998;9.068;2022-11-15T12:16:56;6.10;;;4.20;;
11616;SDS011;5864;52.998;9.068;2022-11-15T12:19:25;4.67;;;4.03;;
11616;SDS011;5864;52.998;9.068;2022-11-15T12:21:56;4.83;;;3.97;;
11616;SDS011;5864;52.998;9.068;2022-11-15T12:24:29;4.83;;;3.97;;
11616;SDS011;5864;52.998;9.068;2022-11-15T12:27:02;4.50;;;3.70;;
11616;SDS011;5864;52.998;9.068;2022-11-15T12:29:35;5.87;;;3.90;;
11616;SDS011;5864;52.998;9.068;2022-11-15T12:32:11;3.77;;;2.90;;
11616;SDS011;5864;52.998;9.068;2022-11-15T12:34:45;3.43;;;3.07;;
11616;SDS011;5864;52.998;9.068;2022-11-15T12:40:20;3.00;;;2.70;;
11616;SDS011;5864;52.998;9.068;2022-11-15T12:43:20;4.90;;;2.97;;
11616;SDS011;5864;52.998;9.068;2022-11-15T12:46:10;4.40;;;3.17;;
11616;SDS011;5864;52.998;9.068;2022-11-15T12:48:46;3.27;;;2.90;;
11616;SDS011;5864;52.998;9.068;2022-11-15T12:57:40;4.60;;;3.10;;
11616;SDS011;5864;52.998;9.068;2022-11-15T13:03:23;4.63;;;2.60;;
11616;SDS011;5864;52.998;9.068;2022-11-15T13:06:00;3.20;;;2.80;;
11616;SDS011;5864;52.998;9.068;2022-11-15T13:08:40;4.87;;;2.53;;
11616;SDS011;5864;52.998;9.068;2022-11-15T13:17:26;3.00;;;2.63;;
11616;SDS011;5864;52.998;9.068;2022-11-15T13:20:00;2.40;;;2.20;;
11616;SDS011;5864;52.998;9.068;2022-11-15T13:22:44;3.83;;;2.20;;
11616;SDS011;5864;52.998;9.068;2022-11-15T13:28:28;3.43;;;2.53;;
11616;SDS011;5864;52.998;9.068;2022-11-15T13:30:59;2.73;;;2.23;;
11616;SDS011;5864;52.998;9.068;2022-11-15T13:33:31;2.87;;;2.30;;
11616;SDS011;5864;52.998;9.068;2022-11-15T13:36:02;3.57;;;2.10;;
11616;SDS011;5864;52.998;9.068;2022-11-15T13:38:33;2.43;;;2.13;;
11616;SDS011;5864;52.998;9.068;2022-11-15T13:41:11;3.10;;;2.07;;
11616;SDS011;5864;52.998;9.068;2022-11-15T13:43:44;2.20;;;2.00;;
11616;SDS011;5864;52.998;9.068;2022-11-15T13:46:12;1.87;;;1.77;;
11616;SDS011;5864;52.998;9.068;2022-11-15T13:48:44;2.27;;;2.00;;
11616;SDS011;5864;52.998;9.068;2022-11-15T13:51:17;1.97;;;1.87;;
11616;SDS011;5864;52.998;9.068;2022-11-15T13:53:51;2.20;;;1.70;;
11616;SDS011;5864;52.998;9.068;2022-11-15T13:56:22;2.13;;;1.90;;
11616;SDS011;5864;52.998;9.068;2022-11-15T13:58:51;2.13;;;1.80;;
11616;SDS011;5864;52.998;9.068;2022-11-15T14:01:21;3.40;;;1.87;;
11616;SDS011;5864;52.998;9.068;2022-11-15T14:03:54;3.17;;;2.03;;
11616;SDS011;5864;52.998;9.068;2022-11-15T14:06:25;3.07;;;2.00;;
11616;SDS011;5864;52.998;9.068;2022-11-15T14:08:59;3.30;;;1.90;;
11616;SDS011;5864;52.998;9.068;2022-11-15T14:11:48;2.73;;;2.10;;
11616;SDS011;5864;52.998;9.068;2022-11-15T14:14:17;2.27;;;1.90;;
11616;SDS011;5864;52.998;9.068;2022-11-15T14:16:48;4.57;;;2.30;;
11616;SDS011;5864;52.998;9.068;2022-11-15T14:19:35;2.83;;;2.10;;
11616;SDS011;5864;52.998;9.068;2022-11-15T14:22:07;3.10;;;2.80;;
11616;SDS011;5864;52.998;9.068;2022-11-15T14:24:43;3.13;;;2.77;;
11616;SDS011;5864;52.998;9.068;2022-11-15T14:27:19;5.80;;;2.73;;
11616;SDS011;5864;52.998;9.068;2022-11-15T14:29:48;5.13;;;3.10;;
11616;SDS011;5864;52.998;9.068;2022-11-15T14:32:16;3.60;;;2.60;;
11616;SDS011;5864;52.998;9.068;2022-11-15T14:34:48;3.27;;;2.97;;
11616;SDS011;5864;52.998;9.068;2022-11-15T14:37:18;4.67;;;2.80;;
11616;SDS011;5864;52.998;9.068;2022-11-15T14:39:48;3.43;;;2.67;;
11616;SDS011;5864;52.998;9.068;2022-11-15T14:42:16;5.03;;;2.93;;
11616;SDS011;5864;52.998;9.068;2022-11-15T14:44:44;3.63;;;2.80;;
11616;SDS011;5864;52.998;9.068;2022-11-15T14:47:12;3.60;;;3.30;;
11616;SDS011;5864;52.998;9.068;2022-11-15T14:49:39;3.97;;;3.07;;
11616;SDS011;5864;52.998;9.068;2022-11-15T14:52:16;5.53;;;3.20;;
11616;SDS011;5864;52.998;9.068;2022-11-15T14:55:13;4.27;;;3.50;;
11616;SDS011;5864;52.998;9.068;2022-11-15T14:57:45;3.80;;;3.07;;
11616;SDS011;5864;52.998;9.068;2022-11-15T15:00:13;4.47;;;3.00;;
11616;SDS011;5864;52.998;9.068;2022-11-15T15:02:41;3.20;;;2.80;;
11616;SDS011;5864;52.998;9.068;2022-11-15T15:05:14;4.37;;;3.50;;
11616;SDS011;5864;52.998;9.068;2022-11-15T15:07:44;3.80;;;3.10;;
11616;SDS011;5864;52.998;9.068;2022-11-15T15:10:12;4.60;;;2.93;;
11616;SDS011;5864;52.998;9.068;2022-11-15T15:12:41;3.10;;;2.70;;
11616;SDS011;5864;52.998;9.068;2022-11-15T15:15:11;4.40;;;3.13;;
11616;SDS011;5864;52.998;9.068;2022-11-15T15:17:40;8.40;;;3.30;;
11616;SDS011;5864;52.998;9.068;2022-11-15T15:20:08;4.87;;;3.20;;
11616;SDS011;5864;52.998;9.068;2022-11-15T15:22:37;4.87;;;3.03;;
11616;SDS011;5864;52.998;9.068;2022-11-15T15:25:14;4.43;;;3.10;;
11616;SDS011;5864;52.998;9.068;2022-11-15T15:27:51;3.73;;;2.37;;
11616;SDS011;5864;52.998;9.068;2022-11-15T15:30:19;8.20;;;3.10;;
11616;SDS011;5864;52.998;9.068;2022-11-15T15:32:47;6.13;;;2.53;;
11616;SDS011;5864;52.998;9.068;2022-11-15T15:35:15;4.03;;;3.10;;
11616;SDS011;5864;52.998;9.068;2022-11-15T15:37:44;6.17;;;3.50;;